Terminal Aerodrome Forecast
Issued by NWS

Home | Current Version | Previous Version | Text Only | Print | Product List | Glossary On
Versions: 1 2 3 4 5 6 7 8 9 10 11 12 13 14 15 16 17 18 19 20 21 22 23
000
FTUS41 KPBZ 202326
TAFLBE
TAF
KLBE 202326Z 2100/2124 20008KT P6SM BKN250
     FM210400 20008KT P6SM BKN250 WS020/23045KT
     FM211400 22015G25KT P6SM VCSH BKN040
     FM211800 28012G22KT 5SM -SHRA OVC015
     FM212100 31010KT 3SM -SHRA OVC008=

USA.gov is the U.S. government's official web portal to all federal, state and local government web resources and services.